Time;durP1;ratioP1;P1;durP2;ratioP2;P2;SDS_P1;SDS_P2;PMS_P1;PMS_P2;Temp;Humidity;BMP_temperature;BMP_pressure;BME280_temperature;BME280_humidity;BME280_pressure;Samples;Min_cycle;Max_cycle;Signal;HPM_P1;HPM_P2
2021/10/13 00:00:24;;;;;;;3.80;2.57;;;6.80;97.90;;;;;;2081279;28;20636;-68
2021/10/13 00:01:25;;;;;;;3.50;2.80;;;6.80;97.90;;;;;;2081098;28;20184;-67
2021/10/13 00:02:26;;;;;;;3.83;2.93;;;6.80;97.80;;;;;;2081220;28;20320;-67
2021/10/13 00:03:26;;;;;;;4.27;2.50;;;6.90;97.60;;;;;;2081249;28;20269;-67
2021/10/13 00:04:27;;;;;;;3.57;2.57;;;6.90;97.70;;;;;;2081236;28;20616;-66
2021/10/13 00:05:28;;;;;;;6.10;3.03;;;6.90;97.70;;;;;;2081216;28;20205;-67
2021/10/13 00:06:29;;;;;;;3.67;2.70;;;6.90;97.60;;;;;;2081321;28;20207;-67
2021/10/13 00:07:29;;;;;;;3.17;2.50;;;6.90;97.50;;;;;;2081316;28;20178;-68
2021/10/13 00:08:30;;;;;;;3.20;2.43;;;6.90;97.40;;;;;;2081266;28;20554;-68
2021/10/13 00:09:31;;;;;;;4.53;2.50;;;6.90;97.00;;;;;;2081278;28;20196;-67
2021/10/13 00:10:31;;;;;;;3.20;2.63;;;6.80;97.10;;;;;;2081177;28;20188;-66
2021/10/13 00:11:33;;;;;;;3.27;2.67;;;6.80;97.20;;;;;;2080793;28;20205;-68
2021/10/13 00:12:34;;;;;;;2.95;2.20;;;6.80;97.40;;;;;;2081080;28;20643;-68
2021/10/13 00:13:35;;;;;;;2.72;2.22;;;6.80;97.50;;;;;;2081058;28;20208;-67
2021/10/13 00:14:36;;;;;;;4.03;2.70;;;6.80;97.50;;;;;;2081048;28;20223;-69
2021/10/13 00:15:37;;;;;;;3.63;3.00;;;6.70;97.30;;;;;;2081035;28;20652;-69
2021/10/13 00:16:38;;;;;;;4.93;2.38;;;6.70;97.20;;;;;;2081154;28;20174;-68
2021/10/13 00:17:39;;;;;;;4.83;2.20;;;6.70;97.40;;;;;;2081029;28;20178;-67
2021/10/13 00:18:40;;;;;;;2.90;2.60;;;6.70;97.40;;;;;;2081235;28;20180;-67
2021/10/13 00:19:40;;;;;;;3.27;2.80;;;6.60;97.30;;;;;;2081141;28;20597;-68
2021/10/13 00:20:41;;;;;;;3.07;2.60;;;6.60;97.10;;;;;;2076727;28;20172;-68
2021/10/13 00:21:42;;;;;;;3.60;2.50;;;6.60;97.20;;;;;;2080952;28;20265;-69
2021/10/13 00:22:43;;;;;;;3.33;2.40;;;6.50;97.30;;;;;;2081219;28;20183;-67
2021/10/13 00:23:44;;;;;;;2.83;2.30;;;6.50;97.50;;;;;;2081236;28;20182;-67
2021/10/13 00:24:44;;;;;;;2.78;2.47;;;6.60;97.40;;;;;;2080944;28;20181;-68
2021/10/13 00:25:45;;;;;;;4.67;3.17;;;6.60;97.50;;;;;;2081120;28;20185;-67
2021/10/13 00:26:46;;;;;;;5.10;2.73;;;6.50;97.70;;;;;;2081087;28;20595;-67
2021/10/13 00:27:46;;;;;;;2.57;2.30;;;6.50;97.80;;;;;;2081120;28;20645;-68
2021/10/13 00:28:47;;;;;;;3.83;2.70;;;6.60;97.80;;;;;;2081028;28;20222;-67
2021/10/13 00:29:48;;;;;;;3.63;2.73;;;6.60;97.70;;;;;;2080977;28;20193;-67
2021/10/13 00:30:49;;;;;;;3.20;2.90;;;6.70;97.70;;;;;;2080993;28;20205;-67
2021/10/13 00:31:49;;;;;;;4.03;3.00;;;6.70;97.70;;;;;;2080670;28;20178;-67
2021/10/13 00:32:50;;;;;;;5.60;3.10;;;6.70;97.70;;;;;;2081270;28;20211;-67
2021/10/13 00:33:51;;;;;;;3.70;2.50;;;6.70;97.80;;;;;;2081053;28;20703;-68
2021/10/13 00:34:51;;;;;;;5.77;2.93;;;6.70;97.80;;;;;;2080945;28;20173;-67
2021/10/13 00:35:52;;;;;;;4.67;2.50;;;6.70;97.40;;;;;;2081157;28;20648;-67
2021/10/13 00:36:53;;;;;;;4.40;2.80;;;6.70;97.20;;;;;;2081145;28;20173;-68
2021/10/13 00:37:53;;;;;;;3.17;2.73;;;6.80;97.20;;;;;;2081050;28;20236;-67
2021/10/13 00:38:54;;;;;;;3.97;2.67;;;6.70;97.20;;;;;;2082617;28;20231;-67
2021/10/13 00:39:55;;;;;;;5.60;3.10;;;6.70;97.40;;;;;;2082404;28;20188;-68
2021/10/13 00:40:55;;;;;;;5.57;3.27;;;6.70;97.50;;;;;;2082743;28;20173;-67
2021/10/13 00:41:56;;;;;;;3.67;3.30;;;6.60;97.50;;;;;;2082191;28;20435;-67
2021/10/13 00:42:57;;;;;;;4.90;3.03;;;6.60;97.40;;;;;;2082433;28;20181;-68
2021/10/13 00:43:58;;;;;;;6.03;3.53;;;6.60;97.20;;;;;;2082466;28;20215;-67
2021/10/13 00:44:58;;;;;;;4.10;3.37;;;6.60;97.10;;;;;;2082299;28;20224;-67
2021/10/13 00:45:59;;;;;;;3.63;2.87;;;6.60;97.20;;;;;;2082485;28;20259;-67
2021/10/13 00:47:00;;;;;;;5.07;3.33;;;6.60;97.40;;;;;;2082409;28;20177;-67
2021/10/13 00:48:01;;;;;;;5.03;3.10;;;6.60;97.60;;;;;;2082423;28;20173;-68
2021/10/13 00:49:01;;;;;;;4.10;3.30;;;6.60;97.80;;;;;;2082337;28;20169;-67
2021/10/13 00:50:11;;;;;;;4.93;3.27;;;6.60;97.90;;;;;;2082395;28;20227;-67
2021/10/13 00:51:12;;;;;;;3.47;2.85;;;6.60;97.80;;;;;;2081421;28;20197;-68
2021/10/13 00:52:15;;;;;;;3.88;3.00;;;6.60;97.90;;;;;;2081844;28;20177;-67
2021/10/13 00:53:16;;;;;;;5.43;3.45;;;6.60;97.80;;;;;;2082267;28;20710;-68
2021/10/13 00:54:18;;;;;;;6.65;3.28;;;6.50;97.80;;;;;;2081659;28;20639;-68
2021/10/13 00:55:20;;;;;;;4.75;3.13;;;6.50;97.70;;;;;;2073608;28;20201;-68
2021/10/13 00:56:20;;;;;;;4.78;3.35;;;6.40;97.70;;;;;;2081722;28;20626;-68
2021/10/13 00:57:22;;;;;;;4.63;3.50;;;6.40;97.50;;;;;;2082303;28;20173;-68
2021/10/13 00:58:24;;;;;;;5.47;3.10;;;6.40;97.40;;;;;;2082294;28;20185;-68
2021/10/13 00:59:25;;;;;;;5.82;3.28;;;6.30;97.50;;;;;;2082115;28;20204;-67
2021/10/13 01:00:25;;;;;;;4.37;2.77;;;6.30;97.60;;;;;;2081838;28;20652;-67
2021/10/13 01:01:44;;;;;;;6.27;3.80;;;6.20;97.70;;;;;;2081391;28;20687;-67
2021/10/13 01:03:38;;;;;;;4.55;3.15;;;6.20;97.90;;;;;;2081717;28;20164;-68
2021/10/13 01:05:14;;;;;;;4.07;2.60;;;6.10;98.30;;;;;;2082020;28;20173;-67
2021/10/13 01:06:17;;;;;;;3.92;2.70;;;6.10;98.80;;;;;;2081737;28;20188;-67
2021/10/13 01:07:32;;;;;;;4.53;3.30;;;6.10;98.10;;;;;;2081669;28;20552;-67
2021/10/13 01:09:04;;;;;;;5.80;2.88;;;6.10;98.20;;;;;;2082453;28;20173;-68
2021/10/13 01:10:30;;;;;;;5.00;2.92;;;6.10;98.20;;;;;;2081733;28;20751;-67
2021/10/13 01:11:37;;;;;;;5.53;3.20;;;6.10;98.20;;;;;;2078964;28;20790;-68
2021/10/13 01:13:09;;;;;;;5.00;3.00;;;6.10;98.40;;;;;;2082415;28;20185;-67
2021/10/13 01:14:36;;;;;;;3.97;2.90;;;6.10;98.40;;;;;;2082248;28;20208;-67
2021/10/13 01:16:09;;;;;;;5.13;3.40;;;6.10;98.40;;;;;;2082184;28;20240;-67
2021/10/13 01:17:35;;;;;;;5.85;3.30;;;6.10;98.20;;;;;;2081720;28;20797;-67
2021/10/13 01:19:06;;;;;;;6.50;3.10;;;6.10;98.00;;;;;;2076913;28;20234;-68
2021/10/13 01:20:24;;;;;;;5.00;3.10;;;6.10;98.10;;;;;;2081381;28;20201;-67
2021/10/13 01:22:01;;;;;;;7.25;3.13;;;6.10;98.30;;;;;;2081448;28;20247;-67
2021/10/13 01:23:26;;;;;;;4.35;3.17;;;6.00;98.40;;;;;;2078336;28;20608;-68
2021/10/13 01:24:57;;;;;;;7.00;4.10;;;6.00;98.50;;;;;;2076759;28;20185;-67
2021/10/13 01:26:33;;;;;;;3.78;3.03;;;6.00;98.60;;;;;;2077428;28;20630;-67
2021/10/13 01:27:52;;;;;;;6.38;3.63;;;6.10;98.70;;;;;;2078254;28;20177;-68
2021/10/13 01:28:59;;;;;;;4.68;3.60;;;6.10;98.60;;;;;;2075915;28;20176;-67
2021/10/13 01:30:04;;;;;;;7.38;4.07;;;6.00;98.50;;;;;;2081625;28;20597;-67
2021/10/13 01:31:17;;;;;;;5.30;4.40;;;6.00;98.50;;;;;;2081138;28;20213;-67
2021/10/13 01:32:25;;;;;;;6.38;4.00;;;6.00;98.50;;;;;;2074929;28;20196;-67
2021/10/13 01:33:37;;;;;;;7.45;4.57;;;6.00;98.60;;;;;;2074320;28;20631;-67
2021/10/13 01:34:44;;;;;;;5.63;4.40;;;5.90;98.70;;;;;;2074684;28;20525;-67
2021/10/13 01:35:49;;;;;;;6.70;4.40;;;5.90;98.70;;;;;;2074145;28;20257;-68
2021/10/13 01:36:58;;;;;;;8.00;4.70;;;5.90;98.60;;;;;;2073790;28;20645;-70
2021/10/13 01:38:05;;;;;;;6.00;4.10;;;5.90;98.60;;;;;;2081508;28;20157;-67
2021/10/13 01:39:07;;;;;;;8.20;4.80;;;5.90;99.10;;;;;;2074169;28;20515;-66
2021/10/13 01:40:13;;;;;;;6.25;4.47;;;5.90;98.60;;;;;;2073636;28;20228;-67
2021/10/13 01:41:16;;;;;;;7.53;4.50;;;5.90;98.50;;;;;;2081150;28;20193;-67
2021/10/13 01:42:17;;;;;;;9.00;4.55;;;5.80;98.50;;;;;;2081333;28;20741;-67
2021/10/13 01:43:20;;;;;;;5.57;4.57;;;5.80;98.50;;;;;;2073279;28;20184;-67
2021/10/13 01:44:21;;;;;;;6.03;4.18;;;5.80;99.00;;;;;;2073645;28;20190;-68
2021/10/13 01:45:23;;;;;;;7.10;5.00;;;5.80;98.60;;;;;;2073214;28;20292;-69
2021/10/13 01:46:25;;;;;;;6.40;4.82;;;5.70;98.50;;;;;;2081212;28;20411;-67
2021/10/13 01:47:27;;;;;;;7.13;4.47;;;5.70;98.40;;;;;;2081218;28;20193;-67
2021/10/13 01:48:28;;;;;;;9.32;4.57;;;5.60;98.50;;;;;;2081422;28;20192;-67
2021/10/13 01:49:34;;;;;;;6.57;4.10;;;5.60;98.50;;;;;;2081025;28;20192;-67
2021/10/13 01:50:36;;;;;;;8.55;4.40;;;5.60;98.40;;;;;;2073460;28;20189;-68
2021/10/13 01:51:37;;;;;;;8.65;4.20;;;5.60;98.40;;;;;;2072968;28;20216;-68
2021/10/13 01:52:40;;;;;;;7.72;4.80;;;5.50;98.40;;;;;;2081334;28;20173;-67
2021/10/13 01:53:42;;;;;;;6.95;4.70;;;5.50;98.50;;;;;;2081262;28;20581;-67
2021/10/13 01:54:44;;;;;;;6.68;4.38;;;5.50;98.50;;;;;;2081359;28;20284;-67
2021/10/13 01:55:46;;;;;;;8.48;5.20;;;5.40;98.50;;;;;;2081930;28;20196;-68
2021/10/13 01:56:48;;;;;;;7.93;4.97;;;5.40;98.70;;;;;;2081268;28;20663;-68
2021/10/13 01:57:51;;;;;;;6.95;4.82;;;5.30;98.80;;;;;;2073111;28;20288;-68
2021/10/13 01:58:57;;;;;;;5.68;4.03;;;5.30;98.80;;;;;;2073541;28;20253;-67
2021/10/13 02:00:05;;;;;;;5.85;4.45;;;5.30;98.90;;;;;;2073812;28;20301;-67
2021/10/13 02:01:11;;;;;;;7.63;4.78;;;5.20;98.90;;;;;;2081058;28;20230;-68
2021/10/13 02:02:12;;;;;;;7.05;5.05;;;5.20;98.90;;;;;;2081307;28;20176;-67
2021/10/13 02:03:14;;;;;;;10.82;5.05;;;5.20;98.90;;;;;;2081116;28;20611;-68
2021/10/13 02:04:15;;;;;;;8.52;5.25;;;5.20;99.00;;;;;;2081304;28;20187;-69
2021/10/13 02:05:17;;;;;;;9.80;4.85;;;5.20;98.90;;;;;;2081363;28;20413;-67
2021/10/13 02:06:21;;;;;;;6.80;5.00;;;5.10;98.80;;;;;;2081240;28;20181;-68
2021/10/13 02:07:22;;;;;;;6.88;4.43;;;5.10;98.80;;;;;;2073464;28;20699;-67
2021/10/13 02:08:25;;;;;;;10.77;4.90;;;5.10;98.70;;;;;;2065108;28;20197;-69
2021/10/13 02:09:28;;;;;;;6.97;4.80;;;5.00;98.60;;;;;;2065538;28;20554;-67
2021/10/13 02:10:30;;;;;;;9.75;5.35;;;5.00;98.60;;;;;;2081268;28;20214;-67
2021/10/13 02:11:32;;;;;;;8.00;4.85;;;5.00;98.80;;;;;;2080762;28;20204;-69
2021/10/13 02:12:36;;;;;;;7.47;5.20;;;4.90;99.00;;;;;;2081215;28;20271;-67
2021/10/13 02:13:38;;;;;;;9.25;5.30;;;4.90;99.10;;;;;;2081677;28;20234;-67
2021/10/13 02:14:40;;;;;;;9.10;5.32;;;4.80;98.90;;;;;;2081047;28;20192;-68
2021/10/13 02:15:46;;;;;;;9.82;4.88;;;4.80;99.10;;;;;;2064978;28;20576;-68
2021/10/13 02:16:50;;;;;;;8.50;4.88;;;4.80;99.20;;;;;;2066276;28;20695;-67
2021/10/13 02:17:53;;;;;;;8.00;6.00;;;4.80;99.30;;;;;;2081169;28;20186;-67
2021/10/13 02:18:57;;;;;;;11.18;5.90;;;4.70;99.20;;;;;;2081262;28;20203;-68
2021/10/13 02:19:58;;;;;;;8.40;5.25;;;4.70;99.40;;;;;;2071254;28;20188;-68
2021/10/13 02:21:00;;;;;;;7.65;5.53;;;4.80;99.50;;;;;;2072874;28;20235;-67
2021/10/13 02:22:03;;;;;;;8.93;5.85;;;4.70;99.40;;;;;;2072916;28;20268;-68
2021/10/13 02:23:05;;;;;;;9.90;6.30;;;4.70;99.30;;;;;;2073321;28;20188;-67
2021/10/13 02:24:07;;;;;;;13.07;6.80;;;4.80;99.30;;;;;;2073092;28;20184;-67
2021/10/13 02:25:08;;;;;;;10.98;6.13;;;4.80;99.40;;;;;;2073069;28;20235;-67
2021/10/13 02:26:45;;;;;;;6.88;4.90;;;4.80;99.50;;;;;;2081104;28;20207;-67
2021/10/13 02:28:00;;;;;;;7.13;5.10;;;4.80;99.60;;;;;;2081084;28;20184;-67
2021/10/13 02:29:16;;;;;;;8.02;5.22;;;4.80;99.60;;;;;;2074605;28;20196;-67
2021/10/13 02:30:17;;;;;;;9.38;5.70;;;4.80;99.70;;;;;;2081142;28;20179;-67
2021/10/13 02:31:18;;;;;;;10.70;5.70;;;4.80;99.70;;;;;;2081402;28;20218;-67
2021/10/13 02:32:19;;;;;;;9.33;5.90;;;4.80;99.60;;;;;;2081755;28;20218;-67
2021/10/13 02:33:19;;;;;;;7.80;4.93;;;4.80;99.60;;;;;;2081107;28;20206;-68
2021/10/13 02:34:21;;;;;;;10.17;5.90;;;4.90;99.40;;;;;;2080909;28;20253;-67
2021/10/13 02:35:22;;;;;;;10.18;5.43;;;4.90;99.30;;;;;;2081632;28;20667;-67
2021/10/13 02:36:23;;;;;;;10.60;6.43;;;4.90;99.30;;;;;;2081558;28;20212;-67
2021/10/13 02:37:24;;;;;;;11.50;6.43;;;4.90;99.30;;;;;;2081734;28;20184;-67
2021/10/13 02:38:25;;;;;;;8.63;5.50;;;4.90;99.20;;;;;;2081722;28;20183;-67
2021/10/13 02:39:26;;;;;;;9.97;6.13;;;4.90;99.30;;;;;;2081670;28;20259;-68
2021/10/13 02:40:27;;;;;;;11.18;6.13;;;4.90;99.30;;;;;;2080876;28;20179;-67
2021/10/13 02:41:27;;;;;;;10.07;6.17;;;4.90;99.30;;;;;;2080682;28;20267;-67
2021/10/13 02:42:28;;;;;;;9.93;6.10;;;4.90;99.30;;;;;;2081521;28;20188;-68
2021/10/13 02:43:29;;;;;;;15.93;6.60;;;4.80;99.50;;;;;;2081568;28;20586;-67
2021/10/13 02:44:30;;;;;;;11.33;6.23;;;4.80;99.70;;;;;;2081649;28;20555;-67
2021/10/13 02:45:37;;;;;;;11.45;6.95;;;4.80;99.90;;;;;;2081156;28;20282;-67
2021/10/13 02:46:48;;;;;;;13.73;7.47;;;4.80;99.90;;;;;;2073551;28;20183;-67
2021/10/13 02:47:58;;;;;;;10.45;6.15;;;4.80;99.90;;;;;;2074350;28;20223;-67
2021/10/13 02:49:15;;;;;;;12.63;7.13;;;4.80;99.90;;;;;;2074041;28;20231;-67
2021/10/13 02:50:37;;;;;;;9.32;6.18;;;4.80;99.90;;;;;;2075093;28;20177;-67
2021/10/13 02:52:02;;;;;;;10.15;6.53;;;4.90;99.90;;;;;;2075234;28;20203;-67
2021/10/13 02:53:31;;;;;;;11.73;6.68;;;4.90;99.90;;;;;;2081186;28;20243;-67
2021/10/13 02:54:45;;;;;;;8.30;5.65;;;4.90;99.90;;;;;;2081031;28;20640;-67
2021/10/13 02:55:59;;;;;;;8.57;5.80;;;5.00;99.90;;;;;;2074753;28;20161;-67
2021/10/13 02:57:03;;;;;;;8.13;5.80;;;5.00;99.90;;;;;;2081024;28;20181;-67
2021/10/13 02:58:21;;;;;;;13.27;6.43;;;5.00;99.90;;;;;;2081632;28;20176;-67
2021/10/13 02:59:41;;;;;;;10.93;6.25;;;5.00;99.90;;;;;;2080837;28;20184;-69
2021/10/13 03:00:46;;;;;;;10.93;6.20;;;5.00;99.90;;;;;;2075244;28;20157;-67
2021/10/13 03:01:49;;;;;;;10.15;6.35;;;5.10;99.90;;;;;;2072211;28;20553;-66
2021/10/13 03:03:00;;;;;;;10.63;6.05;;;5.10;99.90;;;;;;2072755;28;20208;-66
2021/10/13 03:04:04;;;;;;;10.07;6.00;;;5.10;99.90;;;;;;2073968;28;20172;-68
2021/10/13 03:05:06;;;;;;;13.25;6.07;;;5.10;99.90;;;;;;2072951;28;20200;-67
2021/10/13 03:06:09;;;;;;;9.07;6.40;;;5.20;99.80;;;;;;2072784;28;20196;-67
2021/10/13 03:07:20;;;;;;;10.32;6.22;;;5.20;99.50;;;;;;2072930;28;20241;-66
2021/10/13 03:08:22;;;;;;;10.20;6.60;;;5.30;99.40;;;;;;2074062;28;20264;-67
2021/10/13 03:09:26;;;;;;;9.60;6.38;;;5.30;99.40;;;;;;2072703;28;20189;-67
2021/10/13 03:10:29;;;;;;;11.00;6.32;;;5.40;99.30;;;;;;2080699;28;20192;-67
2021/10/13 03:11:30;;;;;;;13.48;6.78;;;5.40;99.40;;;;;;2072424;28;20287;-67
2021/10/13 03:12:48;;;;;;;11.05;6.55;;;5.40;99.50;;;;;;2080846;28;20191;-67
2021/10/13 03:13:52;;;;;;;13.35;6.72;;;5.40;99.70;;;;;;2080672;28;20697;-67
2021/10/13 03:14:56;;;;;;;10.88;7.18;;;5.40;99.80;;;;;;2072961;28;20187;-66
2021/10/13 03:16:01;;;;;;;17.50;7.43;;;5.40;99.90;;;;;;2072905;28;20192;-67
2021/10/13 03:17:02;;;;;;;11.18;6.80;;;5.50;99.90;;;;;;2073037;28;20184;-67
2021/10/13 03:18:04;;;;;;;11.23;7.70;;;5.50;99.90;;;;;;2072559;28;20661;-68
2021/10/13 03:19:05;;;;;;;9.95;6.78;;;5.50;99.70;;;;;;2072384;28;20636;-66
2021/10/13 03:20:06;;;;;;;11.40;7.25;;;5.60;99.50;;;;;;2072552;28;20265;-66
2021/10/13 03:21:08;;;;;;;9.73;6.80;;;5.60;99.50;;;;;;2080496;28;20196;-67
2021/10/13 03:22:09;;;;;;;12.60;7.20;;;5.60;99.50;;;;;;2081333;28;20181;-67
2021/10/13 03:23:12;;;;;;;11.30;7.65;;;5.60;99.50;;;;;;2081602;28;20199;-67
2021/10/13 03:24:16;;;;;;;11.52;6.75;;;5.60;99.50;;;;;;2080554;28;20181;-68
2021/10/13 03:25:29;;;;;;;10.73;7.72;;;5.60;99.10;;;;;;2073021;28;20514;-68
2021/10/13 03:26:30;;;;;;;8.77;5.97;;;5.50;99.10;;;;;;2074277;28;20173;-66
2021/10/13 03:27:32;;;;;;;10.63;7.23;;;5.50;99.30;;;;;;2080637;28;20183;-68
2021/10/13 03:28:34;;;;;;;12.82;7.35;;;5.60;99.50;;;;;;2081133;28;20648;-67
2021/10/13 03:29:40;;;;;;;18.17;7.88;;;5.60;99.50;;;;;;2081182;28;20203;-67
2021/10/13 03:30:44;;;;;;;11.55;6.95;;;5.60;99.50;;;;;;2080621;28;20173;-67
2021/10/13 03:31:46;;;;;;;11.27;7.50;;;5.60;99.40;;;;;;2080360;28;20209;-67
2021/10/13 03:32:47;;;;;;;10.18;7.65;;;5.70;99.20;;;;;;2081166;28;20192;-67
2021/10/13 03:33:49;;;;;;;10.88;7.57;;;5.70;99.20;;;;;;2081240;28;20188;-67
2021/10/13 03:34:50;;;;;;;11.38;7.78;;;5.70;99.10;;;;;;2080408;28;20538;-67
2021/10/13 03:35:51;;;;;;;10.97;7.10;;;5.70;98.90;;;;;;2080686;28;20339;-66
2021/10/13 03:36:51;;;;;;;12.27;8.40;;;5.60;98.60;;;;;;2081196;28;20182;-67
2021/10/13 03:37:54;;;;;;;13.93;9.13;;;5.60;98.70;;;;;;2081350;28;20227;-67
2021/10/13 03:38:55;;;;;;;11.55;8.00;;;5.50;98.90;;;;;;2081335;28;20423;-66
2021/10/13 03:39:56;;;;;;;15.13;8.43;;;5.50;99.20;;;;;;2081188;28;20634;-67
2021/10/13 03:40:57;;;;;;;13.15;8.45;;;5.40;99.40;;;;;;2081139;28;20187;-66
2021/10/13 03:42:01;;;;;;;12.52;7.85;;;5.50;99.30;;;;;;2081028;28;20201;-67
2021/10/13 03:43:03;;;;;;;14.18;8.43;;;5.50;99.20;;;;;;2080625;28;20597;-66
2021/10/13 03:44:05;;;;;;;11.65;7.63;;;5.60;99.10;;;;;;2080662;28;20380;-66
2021/10/13 03:45:06;;;;;;;12.05;7.95;;;5.60;98.90;;;;;;2080356;28;20201;-67
2021/10/13 03:46:06;;;;;;;16.00;9.82;;;5.60;98.80;;;;;;2080342;28;20188;-67
2021/10/13 03:47:07;;;;;;;12.63;8.17;;;5.60;98.80;;;;;;2081108;28;20173;-67
2021/10/13 03:48:08;;;;;;;12.53;9.20;;;5.60;98.70;;;;;;2080603;28;20176;-67
2021/10/13 03:49:09;;;;;;;14.13;7.97;;;5.50;98.70;;;;;;2080563;28;20183;-66
2021/10/13 03:50:11;;;;;;;12.67;7.90;;;5.60;98.80;;;;;;2081047;28;20254;-68
2021/10/13 03:51:12;;;;;;;12.63;7.38;;;5.60;98.80;;;;;;2080794;28;20169;-67
2021/10/13 03:52:13;;;;;;;12.40;7.60;;;5.60;98.80;;;;;;2081337;28;20181;-66
2021/10/13 03:53:13;;;;;;;13.37;8.07;;;5.60;98.60;;;;;;2081185;28;20663;-67
2021/10/13 03:54:14;;;;;;;12.70;7.80;;;5.60;98.30;;;;;;2081164;28;20181;-66
2021/10/13 03:55:17;;;;;;;12.20;7.90;;;5.60;98.20;;;;;;2081075;28;20208;-66
2021/10/13 03:56:18;;;;;;;9.98;7.38;;;5.60;97.90;;;;;;2080523;28;20200;-67
2021/10/13 03:57:18;;;;;;;11.30;7.95;;;5.60;98.10;;;;;;2072461;28;20181;-67
2021/10/13 03:58:19;;;;;;;15.17;7.90;;;5.60;98.20;;;;;;2080730;28;20184;-66
2021/10/13 03:59:20;;;;;;;14.63;7.80;;;5.50;98.00;;;;;;2081131;28;20184;-66
2021/10/13 04:00:22;;;;;;;11.50;7.80;;;5.40;98.30;;;;;;2081134;28;20191;-67
2021/10/13 04:01:23;;;;;;;16.65;8.75;;;5.40;98.50;;;;;;2080311;28;20184;-67
2021/10/13 04:02:23;;;;;;;14.37;8.33;;;5.40;98.60;;;;;;2080594;28;20362;-67
2021/10/13 04:03:24;;;;;;;15.13;7.63;;;5.40;98.60;;;;;;2081158;28;20188;-67
2021/10/13 04:04:25;;;;;;;13.47;8.40;;;5.30;98.40;;;;;;2081142;28;20598;-67
2021/10/13 04:05:25;;;;;;;12.33;7.60;;;5.30;98.30;;;;;;2081134;28;20295;-67
2021/10/13 04:06:26;;;;;;;11.33;8.07;;;5.30;98.10;;;;;;2081061;28;20196;-68
2021/10/13 04:07:30;;;;;;;12.13;7.93;;;5.30;98.10;;;;;;2081105;28;20275;-67
2021/10/13 04:08:31;;;;;;;10.32;7.00;;;5.20;98.00;;;;;;2081207;28;20237;-67
2021/10/13 04:09:31;;;;;;;12.33;7.83;;;5.10;97.90;;;;;;2080991;28;20652;-68
2021/10/13 04:10:32;;;;;;;12.90;8.10;;;5.00;98.00;;;;;;2081076;28;20243;-68
2021/10/13 04:11:33;;;;;;;9.57;7.67;;;5.00;98.00;;;;;;2080915;28;20684;-68
2021/10/13 04:12:35;;;;;;;18.40;7.80;;;5.00;98.10;;;;;;2080964;28;20212;-68
2021/10/13 04:13:36;;;;;;;12.02;8.10;;;4.90;98.00;;;;;;2082315;28;20183;-67
2021/10/13 04:14:37;;;;;;;13.93;7.32;;;4.80;98.10;;;;;;2082559;28;20726;-68
2021/10/13 04:15:37;;;;;;;13.50;7.80;;;4.80;98.20;;;;;;2082650;28;20188;-67
2021/10/13 04:16:38;;;;;;;9.90;7.07;;;4.70;98.20;;;;;;2082564;28;20689;-68
2021/10/13 04:17:39;;;;;;;12.63;7.73;;;4.70;98.10;;;;;;2082603;28;20184;-67
2021/10/13 04:18:40;;;;;;;10.70;7.17;;;4.70;97.90;;;;;;2082576;28;20662;-67
2021/10/13 04:19:40;;;;;;;12.93;8.03;;;4.60;97.70;;;;;;2082631;28;20186;-68
2021/10/13 04:20:41;;;;;;;13.10;7.03;;;4.60;97.70;;;;;;2080884;28;20280;-67
2021/10/13 04:21:42;;;;;;;9.87;7.13;;;4.50;97.80;;;;;;2075486;28;20647;-68
2021/10/13 04:22:42;;;;;;;12.17;6.87;;;4.50;97.90;;;;;;2074294;28;20186;-69
2021/10/13 04:23:43;;;;;;;11.23;7.03;;;4.50;97.80;;;;;;2074483;28;20184;-67
2021/10/13 04:24:44;;;;;;;12.33;7.30;;;4.40;98.00;;;;;;2074234;28;20189;-66
2021/10/13 04:25:45;;;;;;;9.87;7.37;;;4.30;98.10;;;;;;2074413;28;20550;-68
2021/10/13 04:26:45;;;;;;;11.63;7.00;;;4.30;98.30;;;;;;2074321;28;20193;-67
2021/10/13 04:27:46;;;;;;;15.00;7.43;;;4.20;98.30;;;;;;2074326;28;20663;-68
2021/10/13 04:28:47;;;;;;;9.10;6.60;;;4.20;98.20;;;;;;2073696;28;20192;-68
2021/10/13 04:29:47;;;;;;;11.53;6.77;;;4.10;98.50;;;;;;2073752;28;20199;-67
2021/10/13 04:30:48;;;;;;;10.70;6.87;;;4.10;98.70;;;;;;2074241;28;20663;-67
2021/10/13 04:31:49;;;;;;;14.07;7.33;;;4.10;98.70;;;;;;2074131;28;20205;-68
2021/10/13 04:32:50;;;;;;;12.67;6.53;;;4.10;99.00;;;;;;2073622;28;20173;-67
2021/10/13 04:33:50;;;;;;;12.63;7.20;;;4.10;99.10;;;;;;2073858;28;20216;-66
2021/10/13 04:34:51;;;;;;;12.50;6.87;;;4.10;99.10;;;;;;2074144;28;20191;-67
2021/10/13 04:35:52;;;;;;;11.53;6.67;;;4.10;99.10;;;;;;2074344;28;20173;-68
2021/10/13 04:36:52;;;;;;;9.43;6.47;;;4.10;99.10;;;;;;2074209;28;20255;-67
2021/10/13 04:37:53;;;;;;;11.70;6.27;;;4.00;99.10;;;;;;2074317;28;20172;-67
2021/10/13 04:38:54;;;;;;;13.77;7.50;;;4.10;99.10;;;;;;2074189;28;20173;-68
2021/10/13 04:39:54;;;;;;;13.03;6.97;;;4.10;99.30;;;;;;2074283;28;20724;-67
2021/10/13 04:40:55;;;;;;;9.87;6.57;;;4.10;99.30;;;;;;2074208;28;20188;-67
2021/10/13 04:41:56;;;;;;;11.67;6.30;;;4.10;99.30;;;;;;2074064;28;20250;-66
2021/10/13 04:42:57;;;;;;;12.37;6.10;;;4.10;99.50;;;;;;2074391;28;20180;-66
2021/10/13 04:43:57;;;;;;;10.50;6.53;;;4.20;99.40;;;;;;2074292;28;20244;-67
2021/10/13 04:44:59;;;;;;;11.03;6.30;;;4.20;99.40;;;;;;2074206;28;20679;-67
2021/10/13 04:46:00;;;;;;;11.50;6.93;;;4.20;99.20;;;;;;2073609;28;20570;-67
2021/10/13 04:47:00;;;;;;;10.77;6.43;;;4.30;99.30;;;;;;2073588;28;20228;-67
2021/10/13 04:48:01;;;;;;;8.53;5.90;;;4.30;99.20;;;;;;2074158;28;20185;-66
2021/10/13 04:49:02;;;;;;;10.80;6.60;;;4.30;99.10;;;;;;2074263;28;20663;-67
2021/10/13 04:50:04;;;;;;;10.75;6.25;;;4.40;99.20;;;;;;2073496;28;20211;-66
2021/10/13 04:51:05;;;;;;;12.77;7.15;;;4.50;99.20;;;;;;2073268;28;20188;-68
2021/10/13 04:52:06;;;;;;;11.00;5.83;;;4.50;99.20;;;;;;2074078;28;20216;-67
2021/10/13 04:53:07;;;;;;;10.40;5.77;;;4.50;98.90;;;;;;2074201;28;20183;-67
2021/10/13 04:54:07;;;;;;;10.83;6.30;;;4.50;98.80;;;;;;2074123;28;20184;-67
2021/10/13 04:55:09;;;;;;;8.77;5.33;;;4.50;98.80;;;;;;2074090;28;20258;-67
2021/10/13 04:56:10;;;;;;;9.88;5.88;;;4.50;99.00;;;;;;2074062;28;20551;-67
2021/10/13 04:57:10;;;;;;;8.97;5.33;;;4.50;99.10;;;;;;2074152;28;20188;-67
2021/10/13 04:58:11;;;;;;;7.87;5.47;;;4.50;99.20;;;;;;2074129;28;20188;-67
2021/10/13 04:59:12;;;;;;;10.57;5.90;;;4.50;99.20;;;;;;2074169;28;20169;-67
2021/10/13 05:00:13;;;;;;;13.47;5.50;;;4.50;99.00;;;;;;2073949;28;20567;-66
2021/10/13 05:01:13;;;;;;;9.73;5.30;;;4.50;98.80;;;;;;2073964;28;20187;-66
2021/10/13 05:02:14;;;;;;;8.20;5.40;;;4.50;98.80;;;;;;2074041;28;20177;-66
2021/10/13 05:03:15;;;;;;;8.37;4.93;;;4.60;98.80;;;;;;2074103;28;20180;-66
2021/10/13 05:04:16;;;;;;;9.40;5.47;;;4.60;98.70;;;;;;2073360;28;20192;-67
2021/10/13 05:05:16;;;;;;;10.87;5.60;;;4.60;98.60;;;;;;2073385;28;20203;-66
2021/10/13 05:06:17;;;;;;;10.50;5.73;;;4.60;98.40;;;;;;2074072;28;20644;-66
2021/10/13 05:07:18;;;;;;;7.90;5.23;;;4.60;98.20;;;;;;2074054;28;20275;-67
2021/10/13 05:08:18;;;;;;;8.23;5.27;;;4.60;98.30;;;;;;2074000;28;20264;-67
2021/10/13 05:09:19;;;;;;;7.63;5.33;;;4.50;98.40;;;;;;2073452;28;20260;-66
2021/10/13 05:10:20;;;;;;;6.77;5.03;;;4.50;98.40;;;;;;2073354;28;20727;-66
2021/10/13 05:11:20;;;;;;;7.90;4.77;;;4.50;98.30;;;;;;2073670;28;20205;-66
2021/10/13 05:12:21;;;;;;;11.40;5.70;;;4.50;98.40;;;;;;2073994;28;20181;-65
2021/10/13 05:13:22;;;;;;;7.43;5.10;;;4.50;98.50;;;;;;2074094;28;20532;-66
2021/10/13 05:14:22;;;;;;;7.23;5.03;;;4.60;98.50;;;;;;2074034;28;20185;-66
2021/10/13 05:15:23;;;;;;;7.47;5.40;;;4.60;98.90;;;;;;2073967;28;20660;-66
2021/10/13 05:16:24;;;;;;;10.37;4.90;;;4.60;98.40;;;;;;2073905;28;20204;-66
2021/10/13 05:17:24;;;;;;;9.33;5.60;;;4.60;98.50;;;;;;2074046;28;20625;-66
2021/10/13 05:18:25;;;;;;;11.17;5.17;;;4.60;98.60;;;;;;2073952;28;20188;-66
2021/10/13 05:19:26;;;;;;;6.63;4.83;;;4.60;98.50;;;;;;2073900;28;20264;-67
2021/10/13 05:20:26;;;;;;;8.60;5.30;;;4.60;98.40;;;;;;2073994;28;20211;-66
2021/10/13 05:21:28;;;;;;;6.93;5.00;;;4.60;98.40;;;;;;2073651;28;20177;-66
2021/10/13 05:22:28;;;;;;;8.75;5.70;;;4.70;98.50;;;;;;2073350;28;20205;-66
2021/10/13 05:23:29;;;;;;;7.97;5.70;;;4.70;98.60;;;;;;2073323;28;20589;-65
2021/10/13 05:24:30;;;;;;;7.90;5.60;;;4.70;98.60;;;;;;2073366;28;20180;-69
2021/10/13 05:25:31;;;;;;;8.27;5.37;;;4.80;98.60;;;;;;2073470;28;20196;-66
2021/10/13 05:26:31;;;;;;;9.65;4.78;;;4.90;99.00;;;;;;2074070;28;20628;-65
2021/10/13 05:27:32;;;;;;;7.10;5.00;;;4.90;98.10;;;;;;2073785;28;20232;-68
2021/10/13 05:28:33;;;;;;;8.63;5.68;;;4.90;98.00;;;;;;2073876;28;20247;-66
2021/10/13 05:29:34;;;;;;;10.70;5.10;;;4.80;97.90;;;;;;2073793;28;20644;-68
2021/10/13 05:30:34;;;;;;;5.70;4.23;;;4.80;97.80;;;;;;2073871;28;20181;-66
2021/10/13 05:31:35;;;;;;;8.67;5.33;;;4.80;97.80;;;;;;2073468;28;20211;-66
2021/10/13 05:32:37;;;;;;;8.17;5.40;;;4.80;98.00;;;;;;2073882;28;20207;-67
2021/10/13 05:33:37;;;;;;;8.95;4.68;;;4.80;98.20;;;;;;2073268;28;20217;-65
2021/10/13 05:34:38;;;;;;;5.70;4.20;;;4.80;98.60;;;;;;2073137;28;20232;-66
2021/10/13 05:35:39;;;;;;;7.53;4.50;;;4.80;97.70;;;;;;2073844;28;20256;-66